createdAt,value
2023-01-30T00:02:50.514Z,97951.38
2023-01-30T00:07:08.256Z,97927.41
2023-01-30T00:11:26.384Z,97924.56
2023-01-30T00:15:44.711Z,97908.16
2023-01-30T00:20:02.428Z,97895.38
2023-01-30T00:24:20.572Z,97888.81
2023-01-30T00:28:38.388Z,97872.97
2023-01-30T00:32:57.911Z,97876.22
2023-01-30T00:37:15.432Z,97860.41
2023-01-30T00:41:51.663Z,97848.28
2023-01-30T00:46:49.750Z,97853.59
2023-01-30T00:51:07.564Z,97848.06
2023-01-30T00:55:25.054Z,97835.50
2023-01-30T00:59:42.605Z,97829.38
2023-01-30T01:04:00.124Z,97821.72
2023-01-30T01:08:17.953Z,97813.09
2023-01-30T01:12:35.513Z,97799.75
2023-01-30T01:16:53.145Z,97794.91
2023-01-30T01:21:10.626Z,97790.53
2023-01-30T01:25:28.417Z,97773.06
2023-01-30T01:29:45.873Z,97765.28
2023-01-30T01:34:03.576Z,97769.00
2023-01-30T01:38:21.271Z,97755.88
2023-01-30T01:42:40.270Z,97744.16
2023-01-30T01:46:59.611Z,97728.38
2023-01-30T01:51:29.388Z,97717.97
2023-01-30T01:55:50.483Z,97714.88
2023-01-30T02:00:17.356Z,97706.50
2023-01-30T02:04:55.766Z,97694.34
2023-01-30T02:09:13.584Z,97683.63
2023-01-30T02:13:32.498Z,97669.34
2023-01-30T02:17:50.143Z,97676.81
2023-01-30T02:22:29.188Z,97670.50
2023-01-30T02:27:17.217Z,97658.06
2023-01-30T02:31:51.748Z,97653.69
2023-01-30T02:36:29.363Z,97648.81
2023-01-30T02:41:07.958Z,97645.72
2023-01-30T02:45:42.521Z,97642.25
2023-01-30T02:50:10.492Z,97626.53
2023-01-30T02:54:28.178Z,97615.00
2023-01-30T02:59:02.461Z,97608.41
2023-01-30T03:03:49.487Z,97603.19
2023-01-30T03:08:53.692Z,97602.84
2023-01-30T03:13:26.337Z,97593.53
2023-01-30T03:17:46.913Z,97587.63
2023-01-30T03:22:04.923Z,97583.38
2023-01-30T03:26:27.692Z,97584.28
2023-01-30T03:30:45.245Z,97582.41
2023-01-30T03:35:03.362Z,97570.84
2023-01-30T03:39:20.958Z,97555.56
2023-01-30T03:43:38.862Z,97546.81
2023-01-30T03:47:56.307Z,97537.97
2023-01-30T03:52:14.366Z,97526.56
2023-01-30T03:56:32.299Z,97528.19
2023-01-30T04:00:50.190Z,97514.81
2023-01-30T04:05:07.920Z,97495.31
2023-01-30T04:09:25.872Z,97498.75
2023-01-30T04:13:43.325Z,97490.66
2023-01-30T04:18:01.103Z,97478.50
2023-01-30T04:22:18.619Z,97468.72
2023-01-30T04:26:36.222Z,97462.75
2023-01-30T04:30:53.974Z,97450.00
2023-01-30T04:35:11.925Z,97443.34
2023-01-30T04:39:29.400Z,97454.38
2023-01-30T04:43:47.013Z,97455.00
2023-01-30T04:48:04.885Z,97445.25
2023-01-30T04:52:22.706Z,97446.75
2023-01-30T04:56:40.164Z,97453.53
2023-01-30T05:01:15.782Z,97466.75
2023-01-30T05:05:34.260Z,97431.66
2023-01-30T05:09:52.226Z,97430.38
2023-01-30T05:14:09.687Z,97417.00
2023-01-30T05:18:27.363Z,97411.03
2023-01-30T05:22:44.868Z,97411.88
2023-01-30T05:27:03.136Z,97401.25
2023-01-30T05:31:20.739Z,97397.69
2023-01-30T05:35:38.258Z,97390.91
2023-01-30T05:39:55.688Z,97387.69
2023-01-30T05:44:13.214Z,97381.94
2023-01-30T05:48:31.277Z,97373.53
2023-01-30T05:52:49.427Z,97362.63
2023-01-30T05:57:06.881Z,97348.75
2023-01-30T06:01:25.105Z,97335.34
2023-01-30T06:05:42.440Z,97327.16
2023-01-30T06:10:00.140Z,97323.28
2023-01-30T06:14:17.572Z,97313.09
2023-01-30T06:18:35.863Z,97309.50
2023-01-30T06:22:53.320Z,97302.16
2023-01-30T06:27:10.927Z,97288.28
2023-01-30T06:31:28.646Z,97272.72
2023-01-30T06:35:50.512Z,97275.31
2023-01-30T06:40:08.887Z,97284.13
2023-01-30T06:44:26.448Z,97282.34
2023-01-30T06:48:44.245Z,97282.47
2023-01-30T06:53:07.876Z,97270.97
2023-01-30T06:57:25.309Z,97273.56
2023-01-30T07:01:43.295Z,97264.41
2023-01-30T07:06:00.896Z,97264.59
2023-01-30T07:10:18.917Z,97270.91
2023-01-30T07:14:36.379Z,97260.03
2023-01-30T07:18:54.250Z,97250.69
2023-01-30T07:23:11.683Z,97247.97
2023-01-30T07:27:29.371Z,97223.13
2023-01-30T07:31:46.881Z,97218.19
2023-01-30T07:36:04.906Z,97210.19
2023-01-30T07:40:23.255Z,97202.22
2023-01-30T07:44:40.909Z,97221.38
2023-01-30T07:48:59.812Z,97222.53
2023-01-30T07:53:21.577Z,97206.47
2023-01-30T07:57:38.993Z,97214.47
2023-01-30T08:01:59.065Z,97209.59
2023-01-30T08:06:17.230Z,97202.84
2023-01-30T08:10:35.027Z,97195.78
2023-01-30T08:14:52.462Z,97208.16
2023-01-30T08:19:10.339Z,97205.06
2023-01-30T08:23:28.550Z,97202.25
2023-01-30T08:27:46.206Z,97198.44
2023-01-30T08:32:03.790Z,97180.88
2023-01-30T08:36:21.406Z,97192.78
2023-01-30T08:40:39.159Z,97176.88
2023-01-30T08:44:56.801Z,97169.78
2023-01-30T08:49:17.250Z,97167.59
2023-01-30T08:53:34.879Z,97166.97
2023-01-30T08:57:55.895Z,97160.47
2023-01-30T09:02:14.154Z,97161.97
2023-01-30T09:06:31.881Z,97144.19
2023-01-30T09:10:49.490Z,97157.19
2023-01-30T09:15:07.914Z,97160.94
2023-01-30T09:19:28.072Z,97161.13
2023-01-30T09:23:45.572Z,97156.00
2023-01-30T09:28:03.173Z,97144.25
2023-01-30T09:32:20.684Z,97151.34
2023-01-30T09:36:38.207Z,97138.44
2023-01-30T09:41:30.775Z,97142.00
2023-01-30T09:46:13.245Z,97133.41
2023-01-30T09:51:04.752Z,97119.97
2023-01-30T09:55:35.094Z,97101.69
2023-01-30T10:00:10.173Z,97094.00
2023-01-30T10:04:40.353Z,97098.16
2023-01-30T10:09:36.732Z,97076.69
2023-01-30T10:14:32.360Z,97063.97
2023-01-30T10:19:00.320Z,97071.09
2023-01-30T10:23:20.960Z,97059.53
2023-01-30T10:27:52.341Z,97049.72
2023-01-30T10:32:32.261Z,97037.06
2023-01-30T10:37:02.675Z,97039.16
2023-01-30T10:41:31.196Z,97023.03
2023-01-30T10:46:14.953Z,97019.41
2023-01-30T10:50:54.055Z,97023.19
2023-01-30T10:55:52.358Z,97014.47
2023-01-30T11:00:36.396Z,97009.38
2023-01-30T11:04:59.997Z,96987.09
2023-01-30T11:09:17.668Z,96992.78
2023-01-30T11:13:35.155Z,96985.31
2023-01-30T11:18:37.882Z,97002.63
2023-01-30T11:23:00.593Z,96991.81
2023-01-30T11:27:27.804Z,96969.41
2023-01-30T11:31:50.942Z,96962.84
2023-01-30T11:36:28.737Z,96945.72
2023-01-30T11:40:46.201Z,96938.03
2023-01-30T11:45:16.799Z,96939.44
2023-01-30T11:49:58.845Z,96928.75
2023-01-30T11:54:42.141Z,96928.22
2023-01-30T11:59:24.676Z,96918.31
2023-01-30T12:03:50.960Z,96907.69
2023-01-30T12:08:42.321Z,96907.94
2023-01-30T12:13:51.682Z,96898.53
2023-01-30T12:18:27.354Z,96906.91
2023-01-30T12:22:52.694Z,96892.91
2023-01-30T12:27:38.590Z,96892.91
2023-01-30T12:36:45.542Z,96890.13
2023-01-30T12:41:23.838Z,96881.38
2023-01-30T12:45:54.120Z,96895.03
2023-01-30T12:50:41.318Z,96894.13
2023-01-30T12:55:31.973Z,96891.03
2023-01-30T13:00:08.028Z,96873.13
2023-01-30T13:04:56.252Z,96878.66
2023-01-30T13:09:37.265Z,96881.28
2023-01-30T13:14:29.023Z,96867.09
2023-01-30T13:18:57.943Z,96871.31
2023-01-30T13:23:39.297Z,96862.78
2023-01-30T13:28:02.533Z,96857.81
2023-01-30T13:32:43.719Z,96845.34
2023-01-30T13:37:21.059Z,96838.56
2023-01-30T13:41:45.777Z,96845.25
2023-01-30T13:46:10.376Z,96850.75
2023-01-30T13:50:53.491Z,96842.44
2023-01-30T13:55:43.173Z,96836.59
2023-01-30T14:00:31.890Z,96818.84
2023-01-30T14:04:57.834Z,96819.50
2023-01-30T14:09:26.628Z,96816.72
2023-01-30T14:13:53.756Z,96811.88
2023-01-30T14:18:27.369Z,96811.47
2023-01-30T14:22:55.536Z,96810.00
2023-01-30T14:27:32.340Z,96804.25
2023-01-30T14:31:50.971Z,96810.91
2023-01-30T14:36:14.587Z,96804.25
2023-01-30T14:40:35.539Z,96802.53
2023-01-30T14:45:16.879Z,96811.78
2023-01-30T14:49:35.544Z,96812.25
2023-01-30T14:54:07.344Z,96816.41
2023-01-30T14:58:25.087Z,96799.03
2023-01-30T15:02:49.392Z,96815.06
2023-01-30T15:07:18.799Z,96808.50
2023-01-30T15:11:37.586Z,96813.56
2023-01-30T15:16:22.200Z,96821.91
2023-01-30T15:21:03.645Z,96824.03
2023-01-30T15:25:36.875Z,96824.75
2023-01-30T15:30:36.402Z,96834.53
2023-01-30T15:35:12.473Z,96833.56
2023-01-30T15:39:30.148Z,96832.84
2023-01-30T15:44:18.690Z,96834.78
2023-01-30T15:49:10.479Z,96841.19
2023-01-30T15:53:44.386Z,96846.34
2023-01-30T15:58:09.475Z,96869.09
2023-01-30T16:02:32.579Z,96861.44
2023-01-30T16:06:50.197Z,96863.47
2023-01-30T16:11:07.794Z,96885.19
2023-01-30T16:15:39.513Z,96878.81
2023-01-30T16:19:59.840Z,96867.19
2023-01-30T16:24:32.039Z,96890.50
2023-01-30T16:28:51.709Z,96888.25
2023-01-30T16:33:11.095Z,96892.19
2023-01-30T16:37:31.161Z,96905.50
2023-01-30T16:41:56.193Z,96915.44
2023-01-30T16:46:50.868Z,96907.66
2023-01-30T16:51:21.508Z,96914.94
2023-01-30T16:55:39.153Z,96917.00
2023-01-30T16:59:56.739Z,96915.75
2023-01-30T17:04:24.300Z,96913.97
2023-01-30T17:08:54.559Z,96904.06
2023-01-30T17:13:35.764Z,96899.91
2023-01-30T17:17:53.276Z,96904.72
2023-01-30T17:22:24.566Z,96908.25
2023-01-30T17:26:42.153Z,96902.47
2023-01-30T17:30:59.860Z,96907.41
2023-01-30T17:35:18.832Z,96913.81
2023-01-30T17:39:36.536Z,96911.38
2023-01-30T17:43:54.415Z,96899.09
2023-01-30T17:48:13.540Z,96897.53
2023-01-30T17:52:31.015Z,96901.63
2023-01-30T17:56:56.444Z,96897.16
2023-01-30T18:01:16.304Z,96872.28
2023-01-30T18:05:34.049Z,96883.56
2023-01-30T18:09:51.468Z,96893.25
2023-01-30T18:14:09.346Z,96896.66
2023-01-30T18:18:27.102Z,96896.34
2023-01-30T18:22:44.862Z,96902.09
2023-01-30T18:27:02.336Z,96899.09
2023-01-30T18:31:22.245Z,96894.16
2023-01-30T18:35:39.807Z,96886.63
2023-01-30T18:39:57.391Z,96880.41
2023-01-30T18:44:14.945Z,96894.16
2023-01-30T18:48:34.052Z,96894.44
2023-01-30T18:52:51.669Z,96887.22
2023-01-30T18:57:09.352Z,96893.63
2023-01-30T19:01:28.782Z,96893.22
2023-01-30T19:05:46.363Z,96903.22
2023-01-30T19:10:04.835Z,96896.09
2023-01-30T19:14:22.317Z,96894.88
2023-01-30T19:18:39.883Z,96900.84
2023-01-30T19:22:57.603Z,96898.22
2023-01-30T19:27:15.347Z,96894.78
2023-01-30T19:31:33.237Z,96903.09
2023-01-30T19:35:51.226Z,96903.66
2023-01-30T19:40:11.198Z,96899.97
2023-01-30T19:44:28.817Z,96891.28
2023-01-30T19:48:47.295Z,96898.72
2023-01-30T19:53:05.068Z,96903.22
2023-01-30T19:57:22.579Z,96904.34
2023-01-30T20:01:41.705Z,96905.91
2023-01-30T20:06:15.193Z,96900.97
2023-01-30T20:10:33.054Z,96902.97
2023-01-30T20:14:50.615Z,96906.47
2023-01-30T20:19:13.943Z,96908.16
2023-01-30T20:23:31.369Z,96906.91
2023-01-30T20:27:48.965Z,96904.34
2023-01-30T20:32:06.214Z,96900.16
2023-01-30T20:36:26.444Z,96898.16
2023-01-30T20:40:44.034Z,96910.97
2023-01-30T20:45:04.774Z,96909.97
2023-01-30T20:49:23.518Z,96915.22
2023-01-30T20:53:51.411Z,96916.84
2023-01-30T20:58:10.216Z,96913.91
2023-01-30T21:02:28.608Z,96929.63
2023-01-30T21:06:47.198Z,96931.00
2023-01-30T21:11:15.541Z,96932.38
2023-01-30T21:15:32.597Z,96933.00
2023-01-30T21:19:50.146Z,96950.22
2023-01-30T21:24:13.601Z,96954.50
2023-01-30T21:28:32.149Z,96953.59
2023-01-30T21:32:49.751Z,96957.06
2023-01-30T21:37:26.327Z,96960.13
2023-01-30T21:41:46.098Z,96978.44
2023-01-30T21:46:04.981Z,96979.91
2023-01-30T21:50:22.706Z,96987.44
2023-01-30T21:54:40.151Z,96996.22
2023-01-30T21:59:03.223Z,97005.22
2023-01-30T22:03:20.705Z,97013.75
2023-01-30T22:07:38.759Z,97009.81
2023-01-30T22:11:56.361Z,97014.06
2023-01-30T22:16:18.525Z,97019.59
2023-01-30T22:20:36.258Z,97027.00
2023-01-30T22:24:53.873Z,97031.03
2023-01-30T22:29:11.328Z,97036.25
2023-01-30T22:33:29.736Z,97041.38
2023-01-30T22:37:47.328Z,97047.75
2023-01-30T22:42:05.171Z,97028.66
2023-01-30T22:46:28.603Z,97045.84
2023-01-30T22:50:46.276Z,97047.09
2023-01-30T22:55:03.824Z,97048.34
2023-01-30T22:59:22.078Z,97051.38
2023-01-30T23:03:40.856Z,97057.56
2023-01-30T23:07:58.503Z,97064.06
2023-01-30T23:12:54.559Z,97071.16
2023-01-30T23:17:31.315Z,97087.97
2023-01-30T23:21:48.747Z,97088.56
2023-01-30T23:26:06.566Z,97090.44
2023-01-30T23:30:24.122Z,97088.56
2023-01-30T23:34:41.734Z,97098.66
2023-01-30T23:39:00.728Z,97090.00
2023-01-30T23:43:20.462Z,97099.00
2023-01-30T23:47:38.003Z,97087.75
2023-01-30T23:51:55.665Z,97077.66
2023-01-30T23:56:14.406Z,97074.91
